sensor_id;sensor_type;location;lat;lon;timestamp;pressure;altitude;pressure_sealevel;temperature;humidity
48204;BME280;33994;50.998;5.864;2022-12-05T00:00:33;101159.31;;;1.52;98.88
48204;BME280;33994;50.998;5.864;2022-12-05T00:03:19;101161.84;;;1.51;99.10
48204;BME280;33994;50.998;5.864;2022-12-05T00:06:07;101166.22;;;1.53;99.01
48204;BME280;33994;50.998;5.864;2022-12-05T00:08:52;101165.25;;;1.50;98.91
48204;BME280;33994;50.998;5.864;2022-12-05T00:11:39;101157.50;;;1.48;99.10
48204;BME280;33994;50.998;5.864;2022-12-05T00:14:26;101155.81;;;1.50;99.03
48204;BME280;33994;50.998;5.864;2022-12-05T00:17:11;101166.09;;;1.49;99.07
48204;BME280;33994;50.998;5.864;2022-12-05T00:19:57;101154.81;;;1.45;99.08
48204;BME280;33994;50.998;5.864;2022-12-05T00:22:44;101158.38;;;1.49;99.35
48204;BME280;33994;50.998;5.864;2022-12-05T00:25:30;101162.66;;;1.48;99.33
48204;BME280;33994;50.998;5.864;2022-12-05T00:28:15;101149.66;;;1.45;99.51
48204;BME280;33994;50.998;5.864;2022-12-05T00:31:02;101157.56;;;1.51;99.27
48204;BME280;33994;50.998;5.864;2022-12-05T00:33:49;101159.38;;;1.55;99.46
48204;BME280;33994;50.998;5.864;2022-12-05T00:36:35;101162.91;;;1.59;99.21
48204;BME280;33994;50.998;5.864;2022-12-05T00:39:22;101168.03;;;1.57;99.50
48204;BME280;33994;50.998;5.864;2022-12-05T00:42:07;101170.59;;;1.56;99.45
48204;BME280;33994;50.998;5.864;2022-12-05T00:44:53;101169.75;;;1.57;99.52
48204;BME280;33994;50.998;5.864;2022-12-05T00:47:39;101170.72;;;1.60;99.17
48204;BME280;33994;50.998;5.864;2022-12-05T00:50:24;101168.94;;;1.59;99.23
48204;BME280;33994;50.998;5.864;2022-12-05T00:53:10;101175.00;;;1.60;99.13
48204;BME280;33994;50.998;5.864;2022-12-05T00:56:00;101175.00;;;1.60;99.04
48204;BME280;33994;50.998;5.864;2022-12-05T00:58:47;101180.19;;;1.61;99.31
48204;BME280;33994;50.998;5.864;2022-12-05T01:01:35;101177.63;;;1.63;99.15
48204;BME280;33994;50.998;5.864;2022-12-05T01:04:23;101175.13;;;1.64;99.20
48204;BME280;33994;50.998;5.864;2022-12-05T01:07:09;101179.41;;;1.64;99.04
48204;BME280;33994;50.998;5.864;2022-12-05T01:09:54;101169.88;;;1.61;98.96
48204;BME280;33994;50.998;5.864;2022-12-05T01:12:42;101177.63;;;1.63;99.61
48204;BME280;33994;50.998;5.864;2022-12-05T01:15:28;101161.22;;;1.59;99.43
48204;BME280;33994;50.998;5.864;2022-12-05T01:18:13;101169.09;;;1.64;98.94
48204;BME280;33994;50.998;5.864;2022-12-05T01:20:58;101169.97;;;1.64;99.42
48204;BME280;33994;50.998;5.864;2022-12-05T01:23:44;101169.97;;;1.64;99.23
48204;BME280;33994;50.998;5.864;2022-12-05T01:26:30;101169.16;;;1.67;99.09
48204;BME280;33994;50.998;5.864;2022-12-05T01:29:19;101172.63;;;1.67;99.08
48204;BME280;33994;50.998;5.864;2022-12-05T01:32:05;101165.78;;;1.69;99.21
48204;BME280;33994;50.998;5.864;2022-12-05T01:34:51;101170.09;;;1.71;99.14
48204;BME280;33994;50.998;5.864;2022-12-05T01:37:37;101174.44;;;1.72;98.76
48204;BME280;33994;50.998;5.864;2022-12-05T01:40:23;101172.63;;;1.67;98.84
48204;BME280;33994;50.998;5.864;2022-12-05T01:43:13;101174.31;;;1.67;99.12
48204;BME280;33994;50.998;5.864;2022-12-05T01:46:01;101170.81;;;1.63;99.02
48204;BME280;33994;50.998;5.864;2022-12-05T01:48:53;101158.69;;;1.61;99.52
48204;BME280;33994;50.998;5.864;2022-12-05T01:51:43;101172.44;;;1.61;99.33
48204;BME280;33994;50.998;5.864;2022-12-05T01:54:29;101173.38;;;1.63;99.70
48204;BME280;33994;50.998;5.864;2022-12-05T01:57:15;101174.19;;;1.62;99.67
48204;BME280;33994;50.998;5.864;2022-12-05T02:00:04;101168.22;;;1.63;99.75
48204;BME280;33994;50.998;5.864;2022-12-05T02:03:02;101166.38;;;1.59;99.79
48204;BME280;33994;50.998;5.864;2022-12-05T02:05:50;101164.59;;;1.57;100.00
48204;BME280;33994;50.998;5.864;2022-12-05T02:08:37;101175.78;;;1.57;99.48
48204;BME280;33994;50.998;5.864;2022-12-05T02:11:26;101181.84;;;1.59;99.65
48204;BME280;33994;50.998;5.864;2022-12-05T02:14:22;101182.72;;;1.60;99.71
48204;BME280;33994;50.998;5.864;2022-12-05T02:17:13;101184.50;;;1.62;99.73
48204;BME280;33994;50.998;5.864;2022-12-05T02:20:09;101188.03;;;1.66;99.81
48204;BME280;33994;50.998;5.864;2022-12-05T02:23:30;101182.00;;;1.65;99.77
48204;BME280;33994;50.998;5.864;2022-12-05T02:26:49;101188.84;;;1.63;99.83
48204;BME280;33994;50.998;5.864;2022-12-05T02:29:53;101189.63;;;1.61;99.43
48204;BME280;33994;50.998;5.864;2022-12-05T02:32:59;101191.38;;;1.62;99.52
48204;BME280;33994;50.998;5.864;2022-12-05T02:35:53;101190.53;;;1.63;99.66
48204;BME280;33994;50.998;5.864;2022-12-05T02:38:45;101195.78;;;1.66;99.79
48204;BME280;33994;50.998;5.864;2022-12-05T02:41:39;101194.03;;;1.65;99.49
48204;BME280;33994;50.998;5.864;2022-12-05T02:44:30;101182.78;;;1.63;99.31
48204;BME280;33994;50.998;5.864;2022-12-05T02:47:22;101186.31;;;1.65;99.89
48204;BME280;33994;50.998;5.864;2022-12-05T02:50:12;101183.69;;;1.63;99.69
48204;BME280;33994;50.998;5.864;2022-12-05T02:53:03;101190.59;;;1.64;99.70
48204;BME280;33994;50.998;5.864;2022-12-05T02:55:50;101182.00;;;1.65;100.00
48204;BME280;33994;50.998;5.864;2022-12-05T02:58:42;101186.28;;;1.63;100.00
48204;BME280;33994;50.998;5.864;2022-12-05T03:01:31;101187.25;;;1.68;100.00
48204;BME280;33994;50.998;5.864;2022-12-05T03:04:20;101181.16;;;1.66;99.97
48204;BME280;33994;50.998;5.864;2022-12-05T03:07:09;101188.00;;;1.64;99.49
48204;BME280;33994;50.998;5.864;2022-12-05T03:09:59;101187.00;;;1.59;100.00
48204;BME280;33994;50.998;5.864;2022-12-05T03:12:50;101193.00;;;1.58;100.00
48204;BME280;33994;50.998;5.864;2022-12-05T03:15:41;101192.16;;;1.59;100.00
48204;BME280;33994;50.998;5.864;2022-12-05T03:18:33;101199.06;;;1.60;100.00
48204;BME280;33994;50.998;5.864;2022-12-05T03:21:26;101187.84;;;1.58;100.00
48204;BME280;33994;50.998;5.864;2022-12-05T03:24:15;101193.75;;;1.54;100.00
48204;BME280;33994;50.998;5.864;2022-12-05T03:27:06;101193.66;;;1.51;100.00
48204;BME280;33994;50.998;5.864;2022-12-05T03:29:55;101192.00;;;1.53;100.00
48204;BME280;33994;50.998;5.864;2022-12-05T03:32:44;101189.50;;;1.56;100.00
48204;BME280;33994;50.998;5.864;2022-12-05T03:35:35;101194.69;;;1.58;100.00
48204;BME280;33994;50.998;5.864;2022-12-05T03:38:25;101193.81;;;1.57;100.00
48204;BME280;33994;50.998;5.864;2022-12-05T03:41:17;101193.78;;;1.56;100.00
48204;BME280;33994;50.998;5.864;2022-12-05T03:44:08;101198.06;;;1.55;100.00
48204;BME280;33994;50.998;5.864;2022-12-05T03:47:00;101197.16;;;1.53;100.00
48204;BME280;33994;50.998;5.864;2022-12-05T03:49:50;101192.00;;;1.53;100.00
48204;BME280;33994;50.998;5.864;2022-12-05T03:52:41;101196.22;;;1.51;99.88
48204;BME280;33994;50.998;5.864;2022-12-05T03:55:32;101198.75;;;1.48;99.79
48204;BME280;33994;50.998;5.864;2022-12-05T03:58:25;101200.38;;;1.46;99.81
48204;BME280;33994;50.998;5.864;2022-12-05T04:01:12;101201.22;;;1.45;100.00
48204;BME280;33994;50.998;5.864;2022-12-05T04:04:07;101209.06;;;1.48;100.00
48204;BME280;33994;50.998;5.864;2022-12-05T04:06:57;101202.31;;;1.53;100.00
48204;BME280;33994;50.998;5.864;2022-12-05T04:09:48;101215.13;;;1.52;100.00
48204;BME280;33994;50.998;5.864;2022-12-05T04:12:40;101207.50;;;1.55;100.00
48204;BME280;33994;50.998;5.864;2022-12-05T04:15:30;101208.47;;;1.58;99.90
48204;BME280;33994;50.998;5.864;2022-12-05T04:18:42;101213.69;;;1.60;99.92
48204;BME280;33994;50.998;5.864;2022-12-05T04:21:32;101208.53;;;1.60;99.71
48204;BME280;33994;50.998;5.864;2022-12-05T04:24:26;101211.03;;;1.58;99.70
48204;BME280;33994;50.998;5.864;2022-12-05T04:27:39;101219.50;;;1.54;99.58
48204;BME280;33994;50.998;5.864;2022-12-05T04:30:30;101228.03;;;1.52;99.33
48204;BME280;33994;50.998;5.864;2022-12-05T04:33:24;101224.56;;;1.50;99.41
48204;BME280;33994;50.998;5.864;2022-12-05T04:36:15;101227.16;;;1.51;99.46
48204;BME280;33994;50.998;5.864;2022-12-05T04:39:05;101233.34;;;1.56;99.32
48204;BME280;33994;50.998;5.864;2022-12-05T04:41:55;101229.72;;;1.51;99.47
48204;BME280;33994;50.998;5.864;2022-12-05T04:44:48;101232.41;;;1.54;99.22
48204;BME280;33994;50.998;5.864;2022-12-05T04:47:38;101231.50;;;1.52;99.54
48204;BME280;33994;50.998;5.864;2022-12-05T04:50:28;101240.13;;;1.54;99.13
48204;BME280;33994;50.998;5.864;2022-12-05T04:53:16;101234.88;;;1.51;98.99
48204;BME280;33994;50.998;5.864;2022-12-05T04:56:03;101231.41;;;1.49;99.45
48204;BME280;33994;50.998;5.864;2022-12-05T04:58:49;101234.09;;;1.52;99.61
48204;BME280;33994;50.998;5.864;2022-12-05T05:01:40;101234.13;;;1.54;99.54
48204;BME280;33994;50.998;5.864;2022-12-05T05:04:29;101228.00;;;1.50;99.51
48204;BME280;33994;50.998;5.864;2022-12-05T05:07:17;101232.25;;;1.48;99.21
48204;BME280;33994;50.998;5.864;2022-12-05T05:10:03;101234.03;;;1.51;99.24
48204;BME280;33994;50.998;5.864;2022-12-05T05:12:49;101241.53;;;1.43;98.79
48204;BME280;33994;50.998;5.864;2022-12-05T05:15:34;101242.16;;;1.34;98.22
48204;BME280;33994;50.998;5.864;2022-12-05T05:18:21;101236.13;;;1.34;98.49
48204;BME280;33994;50.998;5.864;2022-12-05T05:21:14;101237.03;;;1.36;98.23
48204;BME280;33994;50.998;5.864;2022-12-05T05:23:59;101238.75;;;1.35;98.63
48204;BME280;33994;50.998;5.864;2022-12-05T05:26:45;101235.25;;;1.33;98.48
48204;BME280;33994;50.998;5.864;2022-12-05T05:29:30;101243.78;;;1.32;98.04
48204;BME280;33994;50.998;5.864;2022-12-05T05:32:16;101246.38;;;1.32;98.60
48204;BME280;33994;50.998;5.864;2022-12-05T05:35:04;101244.59;;;1.30;98.37
48204;BME280;33994;50.998;5.864;2022-12-05T05:37:49;101249.75;;;1.30;98.40
48204;BME280;33994;50.998;5.864;2022-12-05T05:40:35;101247.22;;;1.31;98.45
48204;BME280;33994;50.998;5.864;2022-12-05T05:43:20;101250.66;;;1.32;98.32
48204;BME280;33994;50.998;5.864;2022-12-05T05:46:07;101256.56;;;1.28;97.95
48204;BME280;33994;50.998;5.864;2022-12-05T05:48:52;101249.56;;;1.24;97.82
48204;BME280;33994;50.998;5.864;2022-12-05T05:51:40;101250.19;;;1.16;97.39
48204;BME280;33994;50.998;5.864;2022-12-05T05:54:26;101255.22;;;1.12;97.20
48204;BME280;33994;50.998;5.864;2022-12-05T05:57:11;101252.44;;;1.06;97.73
48204;BME280;33994;50.998;5.864;2022-12-05T05:59:57;101254.06;;;1.02;97.68
48204;BME280;33994;50.998;5.864;2022-12-05T06:02:43;101262.50;;;0.98;97.68
48204;BME280;33994;50.998;5.864;2022-12-05T06:05:28;101261.53;;;0.94;97.66
48204;BME280;33994;50.998;5.864;2022-12-05T06:08:15;101258.94;;;0.93;97.30
48204;BME280;33994;50.998;5.864;2022-12-05T06:11:04;101272.66;;;0.92;97.28
48204;BME280;33994;50.998;5.864;2022-12-05T06:13:50;101262.25;;;0.89;97.58
48204;BME280;33994;50.998;5.864;2022-12-05T06:16:35;101264.56;;;0.81;97.44
48204;BME280;33994;50.998;5.864;2022-12-05T06:19:21;101265.34;;;0.79;98.20
48204;BME280;33994;50.998;5.864;2022-12-05T06:22:07;101268.66;;;0.75;97.85
48204;BME280;33994;50.998;5.864;2022-12-05T06:24:54;101272.09;;;0.75;98.18
48204;BME280;33994;50.998;5.864;2022-12-05T06:27:39;101275.47;;;0.73;98.10
48204;BME280;33994;50.998;5.864;2022-12-05T06:30:25;101271.03;;;0.68;98.71
48204;BME280;33994;50.998;5.864;2022-12-05T06:33:11;101273.50;;;0.65;98.46
48204;BME280;33994;50.998;5.864;2022-12-05T06:36:01;101271.66;;;0.61;98.56
48204;BME280;33994;50.998;5.864;2022-12-05T06:38:47;101279.63;;;0.69;98.90
48204;BME280;33994;50.998;5.864;2022-12-05T06:41:35;101280.63;;;0.73;98.89
48204;BME280;33994;50.998;5.864;2022-12-05T06:44:20;101278.94;;;0.75;98.51
48204;BME280;33994;50.998;5.864;2022-12-05T06:47:07;101282.25;;;0.70;98.32
48204;BME280;33994;50.998;5.864;2022-12-05T06:49:53;101282.00;;;0.63;98.44
48204;BME280;33994;50.998;5.864;2022-12-05T06:52:39;101292.38;;;0.64;98.85
48204;BME280;33994;50.998;5.864;2022-12-05T06:55:24;101292.44;;;0.67;99.16
48204;BME280;33994;50.998;5.864;2022-12-05T06:58:11;101295.97;;;0.69;99.27
48204;BME280;33994;50.998;5.864;2022-12-05T07:00:57;101294.28;;;0.71;98.74
48204;BME280;33994;50.998;5.864;2022-12-05T07:04:01;101296.06;;;0.73;99.06
48204;BME280;33994;50.998;5.864;2022-12-05T07:06:47;101306.34;;;0.73;99.27
48204;BME280;33994;50.998;5.864;2022-12-05T07:09:33;101304.69;;;0.75;99.13
48204;BME280;33994;50.998;5.864;2022-12-05T07:12:32;101306.47;;;0.76;99.21
48204;BME280;33994;50.998;5.864;2022-12-05T07:15:19;101308.13;;;0.75;99.15
48204;BME280;33994;50.998;5.864;2022-12-05T07:18:05;101313.22;;;0.72;99.45
48204;BME280;33994;50.998;5.864;2022-12-05T07:20:55;101320.03;;;0.71;99.60
48204;BME280;33994;50.998;5.864;2022-12-05T07:23:42;101326.16;;;0.75;99.11
48204;BME280;33994;50.998;5.864;2022-12-05T07:26:28;101328.09;;;0.81;99.18
48204;BME280;33994;50.998;5.864;2022-12-05T07:29:13;101329.00;;;0.83;99.37
48204;BME280;33994;50.998;5.864;2022-12-05T07:32:00;101324.75;;;0.83;99.26
48204;BME280;33994;50.998;5.864;2022-12-05T07:34:46;101330.75;;;0.84;99.09
48204;BME280;33994;50.998;5.864;2022-12-05T07:37:31;101331.56;;;0.83;98.86
48204;BME280;33994;50.998;5.864;2022-12-05T07:40:17;101330.66;;;0.81;99.04
48204;BME280;33994;50.998;5.864;2022-12-05T07:43:03;101339.28;;;0.83;99.12
48204;BME280;33994;50.998;5.864;2022-12-05T07:45:49;101332.50;;;0.85;99.33
48204;BME280;33994;50.998;5.864;2022-12-05T07:48:36;101339.41;;;0.86;99.63
48204;BME280;33994;50.998;5.864;2022-12-05T07:51:21;101341.09;;;0.85;98.95
48204;BME280;33994;50.998;5.864;2022-12-05T07:54:07;101335.84;;;0.82;99.43
48204;BME280;33994;50.998;5.864;2022-12-05T07:56:53;101342.59;;;0.79;99.09
48204;BME280;33994;50.998;5.864;2022-12-05T07:59:38;101348.53;;;0.76;99.60
48204;BME280;33994;50.998;5.864;2022-12-05T08:02:24;101343.31;;;0.75;99.40
48204;BME280;33994;50.998;5.864;2022-12-05T08:05:11;101343.31;;;0.75;99.67
48204;BME280;33994;50.998;5.864;2022-12-05T08:07:56;101353.69;;;0.76;99.86
48204;BME280;33994;50.998;5.864;2022-12-05T08:10:42;101350.38;;;0.80;99.77
48204;BME280;33994;50.998;5.864;2022-12-05T08:13:27;101357.38;;;0.84;99.87
48204;BME280;33994;50.998;5.864;2022-12-05T08:16:16;101358.28;;;0.86;99.82
48204;BME280;33994;50.998;5.864;2022-12-05T08:19:03;101362.72;;;0.90;99.72
48204;BME280;33994;50.998;5.864;2022-12-05T08:21:52;101360.16;;;0.90;100.00
48204;BME280;33994;50.998;5.864;2022-12-05T08:24:38;101367.88;;;0.90;99.71
48204;BME280;33994;50.998;5.864;2022-12-05T08:27:24;101365.38;;;0.92;99.93
48204;BME280;33994;50.998;5.864;2022-12-05T08:30:09;101367.00;;;0.90;99.64
48204;BME280;33994;50.998;5.864;2022-12-05T08:32:55;101370.53;;;0.92;99.78
48204;BME280;33994;50.998;5.864;2022-12-05T08:35:41;101368.84;;;0.94;99.79
48204;BME280;33994;50.998;5.864;2022-12-05T08:38:28;101380.97;;;0.97;99.85
48204;BME280;33994;50.998;5.864;2022-12-05T08:41:16;101389.63;;;0.99;99.83
48204;BME280;33994;50.998;5.864;2022-12-05T08:44:03;101387.19;;;1.03;99.57
48204;BME280;33994;50.998;5.864;2022-12-05T08:46:49;101389.91;;;1.08;99.80
48204;BME280;33994;50.998;5.864;2022-12-05T08:49:35;101394.34;;;1.12;99.97
48204;BME280;33994;50.998;5.864;2022-12-05T08:52:21;101393.59;;;1.14;99.74
48204;BME280;33994;50.998;5.864;2022-12-05T08:55:08;101390.28;;;1.18;100.00
48204;BME280;33994;50.998;5.864;2022-12-05T08:57:54;101399.75;;;1.19;99.77
48204;BME280;33994;50.998;5.864;2022-12-05T09:00:40;101397.94;;;1.17;99.66
48204;BME280;33994;50.998;5.864;2022-12-05T09:03:26;101403.00;;;1.14;99.21
48204;BME280;33994;50.998;5.864;2022-12-05T09:06:12;101400.34;;;1.11;99.21
48204;BME280;33994;50.998;5.864;2022-12-05T09:08:59;101402.13;;;1.13;99.11
48204;BME280;33994;50.998;5.864;2022-12-05T09:11:47;101399.72;;;1.18;99.09
48204;BME280;33994;50.998;5.864;2022-12-05T09:14:33;101398.91;;;1.20;99.07
48204;BME280;33994;50.998;5.864;2022-12-05T09:17:19;101411.03;;;1.23;99.33
48204;BME280;33994;50.998;5.864;2022-12-05T09:20:06;101412.03;;;1.28;98.77
48204;BME280;33994;50.998;5.864;2022-12-05T09:22:52;101415.59;;;1.32;99.14
48204;BME280;33994;50.998;5.864;2022-12-05T09:25:37;101415.72;;;1.36;98.92
48204;BME280;33994;50.998;5.864;2022-12-05T09:28:24;101415.81;;;1.38;98.57
48204;BME280;33994;50.998;5.864;2022-12-05T09:31:12;101410.66;;;1.38;98.50
48204;BME280;33994;50.998;5.864;2022-12-05T09:33:59;101417.50;;;1.37;98.71
48204;BME280;33994;50.998;5.864;2022-12-05T09:36:45;101414.97;;;1.39;98.68
48204;BME280;33994;50.998;5.864;2022-12-05T09:39:35;101423.63;;;1.41;98.36
48204;BME280;33994;50.998;5.864;2022-12-05T09:42:32;101417.69;;;1.43;98.53
48204;BME280;33994;50.998;5.864;2022-12-05T09:45:24;101422.91;;;1.45;98.16
48204;BME280;33994;50.998;5.864;2022-12-05T09:48:15;101425.38;;;1.42;97.96
48204;BME280;33994;50.998;5.864;2022-12-05T09:51:04;101426.34;;;1.46;98.19
48204;BME280;33994;50.998;5.864;2022-12-05T09:53:50;101428.16;;;1.48;97.87
48204;BME280;33994;50.998;5.864;2022-12-05T09:56:37;101418.72;;;1.49;97.91
48204;BME280;33994;50.998;5.864;2022-12-05T09:59:23;101431.66;;;1.50;98.34
48204;BME280;33994;50.998;5.864;2022-12-05T10:02:20;101431.63;;;1.49;97.72
48204;BME280;33994;50.998;5.864;2022-12-05T10:05:14;101418.66;;;1.47;97.62
48204;BME280;33994;50.998;5.864;2022-12-05T10:08:10;101425.53;;;1.47;97.77
48204;BME280;33994;50.998;5.864;2022-12-05T10:11:00;101422.94;;;1.47;97.99
48204;BME280;33994;50.998;5.864;2022-12-05T10:13:51;101427.34;;;1.49;97.85
48204;BME280;33994;50.998;5.864;2022-12-05T10:16:46;101423.81;;;1.47;97.61
48204;BME280;33994;50.998;5.864;2022-12-05T10:19:37;101422.28;;;1.52;97.63
48204;BME280;33994;50.998;5.864;2022-12-05T10:22:29;101416.31;;;1.55;97.52
48204;BME280;33994;50.998;5.864;2022-12-05T10:25:19;101438.66;;;1.54;97.13
48204;BME280;33994;50.998;5.864;2022-12-05T10:28:13;101431.66;;;1.50;97.25
48204;BME280;33994;50.998;5.864;2022-12-05T10:31:04;101424.69;;;1.48;97.41
48204;BME280;33994;50.998;5.864;2022-12-05T10:33:57;101432.38;;;1.46;97.23
48204;BME280;33994;50.998;5.864;2022-12-05T10:36:54;101431.41;;;1.42;96.73
48204;BME280;33994;50.998;5.864;2022-12-05T10:39:41;101431.31;;;1.39;96.64
48204;BME280;33994;50.998;5.864;2022-12-05T10:42:28;101432.09;;;1.37;96.93
48204;BME280;33994;50.998;5.864;2022-12-05T10:45:18;101436.34;;;1.36;97.08
48204;BME280;33994;50.998;5.864;2022-12-05T10:48:04;101435.41;;;1.33;97.13
48204;BME280;33994;50.998;5.864;2022-12-05T10:50:55;101440.56;;;1.33;97.10
48204;BME280;33994;50.998;5.864;2022-12-05T10:53:43;101440.56;;;1.33;96.61
48204;BME280;33994;50.998;5.864;2022-12-05T10:56:40;101435.41;;;1.33;96.59
48204;BME280;33994;50.998;5.864;2022-12-05T10:59:44;101431.06;;;1.32;97.06
48204;BME280;33994;50.998;5.864;2022-12-05T11:02:31;101431.13;;;1.33;96.92
48204;BME280;33994;50.998;5.864;2022-12-05T11:05:28;101432.88;;;1.34;96.85
48204;BME280;33994;50.998;5.864;2022-12-05T11:08:21;101425.09;;;1.33;96.70
48204;BME280;33994;50.998;5.864;2022-12-05T11:11:17;101425.09;;;1.33;96.75
48204;BME280;33994;50.998;5.864;2022-12-05T11:14:04;101429.59;;;1.40;97.13
48204;BME280;33994;50.998;5.864;2022-12-05T11:16:53;101426.25;;;1.42;97.46
48204;BME280;33994;50.998;5.864;2022-12-05T11:19:38;101427.34;;;1.49;97.69
48204;BME280;33994;50.998;5.864;2022-12-05T11:22:32;101418.75;;;1.50;97.27
48204;BME280;33994;50.998;5.864;2022-12-05T11:25:24;101425.50;;;1.45;97.50
48204;BME280;33994;50.998;5.864;2022-12-05T11:28:27;101426.41;;;1.47;97.24
48204;BME280;33994;50.998;5.864;2022-12-05T11:31:25;101428.09;;;1.47;96.65
48204;BME280;33994;50.998;5.864;2022-12-05T11:34:14;101428.84;;;1.42;96.80
48204;BME280;33994;50.998;5.864;2022-12-05T11:37:05;101435.66;;;1.40;96.75
48204;BME280;33994;50.998;5.864;2022-12-05T11:39:55;101433.94;;;1.41;96.81
48204;BME280;33994;50.998;5.864;2022-12-05T11:42:53;101426.16;;;1.39;96.44
48204;BME280;33994;50.998;5.864;2022-12-05T11:45:56;101419.16;;;1.35;96.76
48204;BME280;33994;50.998;5.864;2022-12-05T11:49:02;101419.03;;;1.32;96.65
48204;BME280;33994;50.998;5.864;2022-12-05T11:51:59;101416.44;;;1.31;97.06
48204;BME280;33994;50.998;5.864;2022-12-05T11:54:58;101419.13;;;1.34;97.43
48204;BME280;33994;50.998;5.864;2022-12-05T11:58:19;101419.16;;;1.35;97.78
48204;BME280;33994;50.998;5.864;2022-12-05T12:01:15;101416.44;;;1.31;97.62
48204;BME280;33994;50.998;5.864;2022-12-05T12:04:42;101422.56;;;1.34;97.90
48204;BME280;33994;50.998;5.864;2022-12-05T12:07:50;101409.63;;;1.33;97.38
48204;BME280;33994;50.998;5.864;2022-12-05T12:10:47;101422.41;;;1.30;97.62
48204;BME280;33994;50.998;5.864;2022-12-05T12:13:47;101421.69;;;1.34;97.88
48204;BME280;33994;50.998;5.864;2022-12-05T12:16:47;101425.00;;;1.30;97.51
48204;BME280;33994;50.998;5.864;2022-12-05T12:19:46;101421.47;;;1.28;97.62
48204;BME280;33994;50.998;5.864;2022-12-05T12:22:46;101425.00;;;1.30;97.91
48204;BME280;33994;50.998;5.864;2022-12-05T12:25:41;101425.91;;;1.32;97.60
48204;BME280;33994;50.998;5.864;2022-12-05T12:28:36;101429.22;;;1.28;97.86
48204;BME280;33994;50.998;5.864;2022-12-05T12:31:37;101425.72;;;1.26;98.01
48204;BME280;33994;50.998;5.864;2022-12-05T12:34:58;101422.31;;;1.27;98.27
48204;BME280;33994;50.998;5.864;2022-12-05T12:38:07;101426.72;;;1.29;98.40
48204;BME280;33994;50.998;5.864;2022-12-05T12:41:07;101425.88;;;1.30;98.42
48204;BME280;33994;50.998;5.864;2022-12-05T12:44:04;101427.72;;;1.34;98.71
48204;BME280;33994;50.998;5.864;2022-12-05T12:46:56;101428.78;;;1.41;98.96
48204;BME280;33994;50.998;5.864;2022-12-05T12:49:54;101422.06;;;1.46;98.44
48204;BME280;33994;50.998;5.864;2022-12-05T12:52:57;101415.28;;;1.48;98.73
48204;BME280;33994;50.998;5.864;2022-12-05T12:55:54;101422.28;;;1.52;98.47
48204;BME280;33994;50.998;5.864;2022-12-05T12:58:50;101420.59;;;1.54;98.01
48204;BME280;33994;50.998;5.864;2022-12-05T13:01:41;101416.22;;;1.52;97.74
48204;BME280;33994;50.998;5.864;2022-12-05T13:04:32;101413.56;;;1.49;97.59
48204;BME280;33994;50.998;5.864;2022-12-05T13:07:29;101416.16;;;1.49;97.60
48204;BME280;33994;50.998;5.864;2022-12-05T13:10:22;101409.94;;;1.43;97.96
48204;BME280;33994;50.998;5.864;2022-12-05T13:13:12;101411.03;;;1.50;97.96
48204;BME280;33994;50.998;5.864;2022-12-05T13:16:03;101412.75;;;1.50;98.08
48204;BME280;33994;50.998;5.864;2022-12-05T13:18:50;101414.44;;;1.49;98.03
48204;BME280;33994;50.998;5.864;2022-12-05T13:21:38;101411.88;;;1.49;97.98
48204;BME280;33994;50.998;5.864;2022-12-05T13:24:27;101405.78;;;1.47;97.82
48204;BME280;33994;50.998;5.864;2022-12-05T13:27:15;101411.00;;;1.49;97.79
48204;BME280;33994;50.998;5.864;2022-12-05T13:30:03;101413.59;;;1.50;97.93
48204;BME280;33994;50.998;5.864;2022-12-05T13:32:54;101416.09;;;1.47;97.63
48204;BME280;33994;50.998;5.864;2022-12-05T13:35:41;101415.34;;;1.51;98.17
48204;BME280;33994;50.998;5.864;2022-12-05T13:38:44;101410.28;;;1.54;97.91
48204;BME280;33994;50.998;5.864;2022-12-05T13:41:51;101415.44;;;1.54;97.67
48204;BME280;33994;50.998;5.864;2022-12-05T13:44:56;101420.47;;;1.50;97.67
48204;BME280;33994;50.998;5.864;2022-12-05T13:47:53;101429.69;;;1.43;97.59
48204;BME280;33994;50.998;5.864;2022-12-05T13:50:49;101432.09;;;1.37;97.33
48204;BME280;33994;50.998;5.864;2022-12-05T13:53:40;101436.31;;;1.35;97.32
48204;BME280;33994;50.998;5.864;2022-12-05T13:56:46;101425.88;;;1.30;97.89
48204;BME280;33994;50.998;5.864;2022-12-05T13:59:59;101428.38;;;1.29;97.71
48204;BME280;33994;50.998;5.864;2022-12-05T14:02:59;101425.88;;;1.30;97.85
48204;BME280;33994;50.998;5.864;2022-12-05T14:05:51;101431.84;;;1.29;97.74
48204;BME280;33994;50.998;5.864;2022-12-05T14:08:52;101421.31;;;1.22;97.51
48204;BME280;33994;50.998;5.864;2022-12-05T14:11:38;101428.31;;;1.26;98.00
48204;BME280;33994;50.998;5.864;2022-12-05T14:17:44;101422.56;;;1.34;97.99
48204;BME280;33994;50.998;5.864;2022-12-05T14:20:44;101429.47;;;1.35;98.13
48204;BME280;33994;50.998;5.864;2022-12-05T14:23:57;101435.47;;;1.36;97.98
48204;BME280;33994;50.998;5.864;2022-12-05T14:26:57;101435.69;;;1.42;97.84
48204;BME280;33994;50.998;5.864;2022-12-05T14:29:58;101434.00;;;1.42;97.50
48204;BME280;33994;50.998;5.864;2022-12-05T14:32:49;101438.28;;;1.42;97.32
48204;BME280;33994;50.998;5.864;2022-12-05T14:35:40;101440.00;;;1.43;97.14
48204;BME280;33994;50.998;5.864;2022-12-05T14:38:30;101433.84;;;1.38;97.30
48204;BME280;33994;50.998;5.864;2022-12-05T14:41:21;101434.72;;;1.38;97.58
48204;BME280;33994;50.998;5.864;2022-12-05T14:44:16;101435.69;;;1.42;96.84
48204;BME280;33994;50.998;5.864;2022-12-05T14:47:03;101434.81;;;1.41;96.89
48204;BME280;33994;50.998;5.864;2022-12-05T14:49:55;101436.56;;;1.42;97.21
48204;BME280;33994;50.998;5.864;2022-12-05T14:56:17;101447.50;;;1.35;97.40
48204;BME280;33994;50.998;5.864;2022-12-05T14:59:06;101445.78;;;1.36;97.09
48204;BME280;33994;50.998;5.864;2022-12-05T15:01:59;101447.56;;;1.37;97.32
48204;BME280;33994;50.998;5.864;2022-12-05T15:04:50;101456.84;;;1.32;97.07
48204;BME280;33994;50.998;5.864;2022-12-05T15:07:39;101454.16;;;1.29;96.81
48204;BME280;33994;50.998;5.864;2022-12-05T15:10:27;101449.16;;;1.33;96.99